Time;durP1;ratioP1;P1;durP2;ratioP2;P2;SDS_P1;SDS_P2;PMS_P1;PMS_P2;Temp;Humidity;BMP_temperature;BMP_pressure;BME280_temperature;BME280_humidity;BME280_pressure;Samples;Min_cycle;Max_cycle;Signal;HPM_P1;HPM_P2
2021/08/01 00:00:29;;;;;;;16.05;10.82;;;14.80;99.90;;;;;;6225027;23;20032;-92
2021/08/01 00:03:19;;;;;;;17.65;12.05;;;14.80;99.90;;;;;;6246122;23;20052;-93
2021/08/01 00:06:09;;;;;;;19.90;12.15;;;14.70;99.90;;;;;;6223696;23;20024;-94
2021/08/01 00:08:57;;;;;;;15.30;10.45;;;14.70;99.90;;;;;;6245185;23;20039;-92
2021/08/01 00:11:45;;;;;;;18.15;11.07;;;14.60;99.90;;;;;;6224313;23;20032;-92
2021/08/01 00:14:33;;;;;;;20.23;11.70;;;14.50;99.90;;;;;;6224154;23;20119;-92
2021/08/01 00:17:21;;;;;;;17.52;11.23;;;14.40;99.90;;;;;;6204048;23;20028;-92
2021/08/01 00:20:09;;;;;;;19.17;11.52;;;14.40;99.90;;;;;;6223198;23;20039;-92
2021/08/01 00:22:58;;;;;;;20.90;11.68;;;14.40;99.90;;;;;;6226366;22;20028;-94
2021/08/01 00:25:46;;;;;;;21.85;11.23;;;14.40;99.90;;;;;;6245485;23;20024;-93
2021/08/01 00:28:33;;;;;;;19.30;11.25;;;14.30;99.90;;;;;;6202317;23;20023;-91
2021/08/01 00:31:21;;;;;;;22.73;10.40;;;14.30;99.90;;;;;;6222532;23;20280;-90
2021/08/01 00:34:11;;;;;;;16.73;11.40;;;14.30;99.90;;;;;;6204373;23;20050;-90
2021/08/01 00:36:58;;;;;;;18.15;11.77;;;14.20;99.90;;;;;;6202967;23;20690;-90
2021/08/01 00:39:46;;;;;;;22.88;12.23;;;14.30;99.90;;;;;;6247447;23;20039;-92
2021/08/01 00:42:35;;;;;;;23.17;13.88;;;14.40;99.90;;;;;;6202454;23;20025;-91
2021/08/01 00:45:23;;;;;;;18.98;13.60;;;14.30;99.90;;;;;;6203331;23;20035;-91
2021/08/01 00:48:30;;;;;;;23.40;14.77;;;14.30;99.90;;;;;;6223253;23;20035;-92
2021/08/01 00:51:18;;;;;;;21.75;13.15;;;14.30;99.90;;;;;;6224199;23;20032;-91
2021/08/01 00:54:05;;;;;;;23.80;13.70;;;14.30;99.90;;;;;;6223287;23;20035;-92
2021/08/01 00:56:55;;;;;;;21.38;13.18;;;14.20;99.90;;;;;;6202499;23;20071;-90
2021/08/01 00:59:42;;;;;;;17.45;12.25;;;14.10;99.90;;;;;;6208545;23;20035;-91
2021/08/01 01:02:44;;;;;;;24.15;13.20;;;14.10;99.90;;;;;;6224027;23;20024;-92
2021/08/01 01:06:04;;;;;;;21.17;11.80;;;14.20;99.90;;;;;;6227950;22;20470;-91
2021/08/01 01:09:05;;;;;;;18.30;11.80;;;14.10;99.90;;;;;;6245704;23;20020;-92
2021/08/01 01:11:55;;;;;;;18.33;11.40;;;14.10;99.90;;;;;;6223901;23;20028;-92
2021/08/01 01:14:47;;;;;;;17.60;12.52;;;14.10;99.90;;;;;;6222600;23;20039;-93
2021/08/01 01:17:36;;;;;;;18.35;12.25;;;14.10;99.90;;;;;;6246234;23;20312;-91
2021/08/01 01:20:49;;;;;;;21.20;12.02;;;14.10;99.90;;;;;;6244391;23;20403;-92
2021/08/01 01:24:06;;;;;;;18.38;12.05;;;14.10;99.90;;;;;;6223903;22;20035;-91
2021/08/01 01:27:15;;;;;;;21.27;11.93;;;14.10;99.90;;;;;;6245221;23;20020;-93
2021/08/01 01:30:04;;;;;;;19.00;13.00;;;14.10;99.90;;;;;;6244600;23;20035;-93
2021/08/01 01:33:06;;;;;;;17.75;12.00;;;14.10;99.90;;;;;;6223215;23;20095;-91
2021/08/01 01:35:55;;;;;;;20.08;11.98;;;14.10;99.90;;;;;;6222269;23;20032;-93
2021/08/01 01:38:43;;;;;;;18.50;11.38;;;14.10;99.90;;;;;;6223661;23;20032;-91
2021/08/01 01:41:33;;;;;;;17.95;11.27;;;14.00;99.90;;;;;;6243355;23;20154;-92
2021/08/01 01:44:23;;;;;;;22.83;12.57;;;14.00;99.90;;;;;;6222969;23;20031;-91
2021/08/01 01:47:17;;;;;;;19.80;12.45;;;14.00;99.90;;;;;;6245133;23;20035;-93
2021/08/01 01:50:11;;;;;;;21.00;12.35;;;14.00;99.90;;;;;;6198768;23;20027;-93
2021/08/01 01:53:02;;;;;;;19.80;13.40;;;14.00;99.90;;;;;;6204040;23;20028;-92
2021/08/01 01:55:51;;;;;;;20.08;12.80;;;14.00;99.90;;;;;;6202047;23;20396;-91
2021/08/01 01:58:39;;;;;;;19.35;13.50;;;14.00;99.90;;;;;;6222556;23;20560;-92
2021/08/01 02:01:26;;;;;;;26.38;15.55;;;14.00;99.90;;;;;;6223550;23;20031;-91
2021/08/01 02:04:15;;;;;;;23.33;15.48;;;14.00;99.90;;;;;;6246063;23;20103;-90
2021/08/01 02:07:04;;;;;;;22.20;14.95;;;13.90;99.90;;;;;;6205144;23;20035;-89
2021/08/01 02:10:02;;;;;;;26.30;15.60;;;13.90;99.90;;;;;;6227980;22;20036;-92
2021/08/01 02:12:55;;;;;;;22.45;16.02;;;13.80;99.90;;;;;;6223513;23;20431;-90
2021/08/01 02:15:50;;;;;;;32.35;16.90;;;13.90;99.90;;;;;;6245348;23;20038;-92
2021/08/01 02:18:49;;;;;;;19.85;16.15;;;13.90;99.90;;;;;;6224047;23;20409;-91
2021/08/01 02:21:39;;;;;;;27.20;17.30;;;13.90;99.90;;;;;;6224231;23;20031;-92
2021/08/01 02:24:28;;;;;;;25.35;16.90;;;13.90;99.90;;;;;;6212666;23;20031;-92
2021/08/01 02:27:34;;;;;;;27.15;17.70;;;13.90;99.90;;;;;;6162602;23;20048;-94
2021/08/01 02:30:22;;;;;;;33.20;18.40;;;13.90;99.90;;;;;;6213797;23;20031;-91
2021/08/01 02:33:11;;;;;;;29.92;18.40;;;13.90;99.90;;;;;;6193058;23;20082;-91
2021/08/01 02:36:02;;;;;;;24.85;17.98;;;13.90;99.90;;;;;;6192980;23;20028;-92
2021/08/01 02:38:53;;;;;;;28.38;18.83;;;13.90;99.90;;;;;;6193177;23;20036;-91
2021/08/01 02:41:46;;;;;;;24.95;18.63;;;13.80;99.90;;;;;;6192768;23;20031;-91
2021/08/01 02:44:49;;;;;;;28.13;18.83;;;13.80;99.90;;;;;;6122418;23;20061;-91
2021/08/01 02:47:39;;;;;;;31.15;18.63;;;13.90;99.90;;;;;;6102712;23;20022;-92
2021/08/01 02:50:46;;;;;;;29.98;18.95;;;13.90;99.90;;;;;;6106751;23;20022;-92
2021/08/01 02:53:53;;;;;;;36.80;20.85;;;13.90;99.90;;;;;;6122925;23;20022;-90
2021/08/01 02:57:11;;;;;;;30.02;19.88;;;13.90;99.90;;;;;;6126885;23;20021;-92
2021/08/01 03:00:12;;;;;;;36.60;20.42;;;13.80;99.90;;;;;;6125200;23;20030;-91
2021/08/01 03:03:23;;;;;;;33.47;21.08;;;13.90;99.90;;;;;;6124532;23;20034;-91
2021/08/01 03:06:35;;;;;;;32.88;21.00;;;13.80;99.90;;;;;;6124137;23;20053;-91
2021/08/01 03:09:37;;;;;;;30.58;19.15;;;13.80;99.90;;;;;;6091097;23;20037;-93
2021/08/01 03:12:51;;;;;;;31.38;20.35;;;13.80;99.90;;;;;;6096174;23;20030;-93
2021/08/01 03:16:05;;;;;;;;;;;;;;;;;;;;;
2021/08/01 03:18:54;;;;;;;27.50;18.25;;;13.90;99.90;;;;;;6184033;23;20033;-91
2021/08/01 03:21:49;;;;;;;38.38;19.75;;;13.80;99.90;;;;;;6142466;23;20021;-94
2021/08/01 03:24:50;;;;;;;32.50;18.88;;;13.80;99.90;;;;;;6180169;23;20021;-92
2021/08/01 03:31:11;;;;;;;26.27;17.98;;;13.80;99.90;;;;;;6213229;23;20024;-91
2021/08/01 03:33:59;;;;;;;32.97;18.55;;;13.70;99.90;;;;;;6212682;23;20032;-93
2021/08/01 03:36:52;;;;;;;27.30;18.77;;;13.70;99.90;;;;;;6203758;23;20052;-93
2021/08/01 03:39:52;;;;;;;27.73;18.38;;;13.70;99.90;;;;;;6206873;23;20118;-92
2021/08/01 03:42:46;;;;;;;28.10;18.08;;;13.60;99.90;;;;;;6208814;23;20024;-92
2021/08/01 03:45:53;;;;;;;30.02;18.25;;;13.60;99.90;;;;;;6203063;23;20092;-93
2021/08/01 03:48:47;;;;;;;30.17;18.75;;;13.60;99.90;;;;;;6225836;23;20080;-93
2021/08/01 03:51:52;;;;;;;24.67;17.65;;;13.50;99.90;;;;;;6229232;23;20038;-92
2021/08/01 03:55:09;;;;;;;25.88;17.98;;;13.50;99.90;;;;;;6229479;23;20024;-92
2021/08/01 03:58:10;;;;;;;31.48;18.95;;;13.50;99.90;;;;;;6227336;23;20546;-92
2021/08/01 04:01:00;;;;;;;28.60;17.63;;;13.50;99.90;;;;;;6245385;22;20066;-93
2021/08/01 04:04:54;;;;;;;28.58;18.02;;;13.50;99.90;;;;;;6183214;23;20419;-92
2021/08/01 04:08:29;;;;;;;21.88;16.92;;;13.40;99.90;;;;;;6124049;23;20096;-91
2021/08/01 04:11:32;;;;;;;26.00;17.40;;;13.40;99.90;;;;;;6151282;23;20016;-91
2021/08/01 04:14:20;;;;;;;23.17;18.10;;;13.30;99.90;;;;;;6221737;23;20043;-92
2021/08/01 04:17:09;;;;;;;27.13;16.75;;;13.40;99.90;;;;;;6222100;23;20311;-89
2021/08/01 04:19:56;;;;;;;24.48;16.30;;;13.30;99.90;;;;;;6183675;23;20024;-90
2021/08/01 04:22:44;;;;;;;25.98;16.52;;;13.40;99.90;;;;;;6204633;22;20024;-90
2021/08/01 04:25:36;;;;;;;24.80;16.02;;;13.30;99.90;;;;;;6214506;23;20020;-93
2021/08/01 04:28:40;;;;;;;23.13;15.70;;;13.30;99.90;;;;;;6235413;22;20024;-92
2021/08/01 04:31:28;;;;;;;25.20;16.88;;;13.30;99.90;;;;;;6227988;23;20024;-90
2021/08/01 04:34:17;;;;;;;29.67;17.55;;;13.30;99.90;;;;;;6231207;22;20017;-91
2021/08/01 04:37:04;;;;;;;21.55;16.42;;;13.30;99.90;;;;;;6254334;23;20048;-91
2021/08/01 04:39:54;;;;;;;24.80;17.63;;;13.40;99.90;;;;;;6234106;23;20100;-90
2021/08/01 04:42:47;;;;;;;26.23;16.75;;;13.40;99.90;;;;;;6255974;23;20096;-91
2021/08/01 04:45:38;;;;;;;23.85;16.15;;;13.30;99.90;;;;;;6237466;23;20020;-91
2021/08/01 04:48:25;;;;;;;23.88;16.20;;;13.20;99.90;;;;;;6236929;23;20013;-90
2021/08/01 04:51:12;;;;;;;29.08;17.13;;;13.20;99.90;;;;;;6255313;22;20446;-91
2021/08/01 04:54:03;;;;;;;26.88;17.65;;;13.30;99.90;;;;;;6234574;23;20092;-91
2021/08/01 04:56:50;;;;;;;22.80;16.38;;;13.30;99.90;;;;;;6220574;23;20158;-86
2021/08/01 04:59:40;;;;;;;31.45;18.90;;;13.30;99.90;;;;;;6210504;23;20036;-86
2021/08/01 05:02:30;;;;;;;27.13;17.90;;;13.30;99.90;;;;;;6229934;23;20102;-88
2021/08/01 05:05:22;;;;;;;27.65;18.38;;;13.40;99.90;;;;;;6211540;23;20099;-87
2021/08/01 05:08:09;;;;;;;27.08;18.35;;;13.30;99.90;;;;;;6233391;22;20183;-87
2021/08/01 05:10:56;;;;;;;28.05;18.52;;;13.40;99.90;;;;;;6229701;23;20043;-86
2021/08/01 05:13:43;;;;;;;19.67;17.35;;;13.40;99.90;;;;;;6230581;23;20062;-85
2021/08/01 05:16:32;;;;;;;21.52;16.63;;;13.40;99.90;;;;;;6210518;23;20086;-87
2021/08/01 05:19:19;;;;;;;21.55;17.00;;;13.50;99.90;;;;;;6231563;23;20356;-85
2021/08/01 05:22:09;;;;;;;20.98;15.85;;;13.60;99.90;;;;;;6210140;23;20020;-87
2021/08/01 05:24:56;;;;;;;24.17;16.77;;;13.60;99.90;;;;;;6222223;23;20024;-86
2021/08/01 05:27:46;;;;;;;18.45;14.43;;;13.70;99.90;;;;;;6242870;23;20024;-86
2021/08/01 05:30:34;;;;;;;20.17;14.65;;;13.70;99.90;;;;;;6222611;22;20092;-86
2021/08/01 05:33:21;;;;;;;16.40;14.07;;;13.80;99.90;;;;;;6220140;23;20043;-86
2021/08/01 05:36:10;;;;;;;17.23;12.07;;;13.80;99.90;;;;;;6199169;23;20038;-86
2021/08/01 05:38:57;;;;;;;17.80;12.57;;;13.90;99.90;;;;;;6242015;23;20596;-85
2021/08/01 05:41:44;;;;;;;16.35;12.13;;;14.00;99.90;;;;;;6220117;23;20028;-86
2021/08/01 05:44:33;;;;;;;19.02;12.88;;;14.00;99.90;;;;;;6242261;22;20035;-86
2021/08/01 05:47:21;;;;;;;14.23;12.07;;;14.00;99.90;;;;;;6219806;23;20028;-86
2021/08/01 05:50:11;;;;;;;14.38;11.90;;;14.00;99.90;;;;;;6241654;23;20085;-85
2021/08/01 05:52:58;;;;;;;18.30;13.07;;;14.00;99.90;;;;;;6219438;23;20056;-87
2021/08/01 06:00:11;;;;;;;16.63;12.60;;;14.00;99.90;;;;;;6147162;23;20082;-85
2021/08/01 06:02:58;;;;;;;16.63;12.45;;;14.00;99.90;;;;;;6219147;23;20028;-86
2021/08/01 06:05:46;;;;;;;15.63;12.57;;;14.00;99.90;;;;;;6199152;23;20072;-84
2021/08/01 06:08:36;;;;;;;18.30;14.23;;;14.10;99.90;;;;;;6218699;23;20020;-85
2021/08/01 06:11:51;;;;;;;18.67;13.35;;;14.10;99.90;;;;;;6200844;23;20035;-89
2021/08/01 06:15:02;;;;;;;19.48;13.10;;;14.20;99.90;;;;;;6218629;23;20094;-89
2021/08/01 06:18:03;;;;;;;21.20;12.82;;;14.20;99.90;;;;;;6222354;23;20032;-89
2021/08/01 06:21:33;;;;;;;20.65;13.23;;;14.20;99.90;;;;;;6219961;23;20320;-90
2021/08/01 06:24:28;;;;;;;18.45;12.02;;;14.30;99.90;;;;;;6220835;23;20055;-91
2021/08/01 06:27:17;;;;;;;15.52;11.85;;;14.40;99.90;;;;;;6220328;23;20137;-88
2021/08/01 06:30:09;;;;;;;15.88;12.25;;;14.40;99.90;;;;;;6244802;22;20024;-90
2021/08/01 06:32:58;;;;;;;17.48;13.07;;;14.50;99.90;;;;;;6223914;22;20372;-89
2021/08/01 06:35:46;;;;;;;18.35;12.93;;;14.50;99.90;;;;;;6221570;23;20374;-89
2021/08/01 06:38:35;;;;;;;13.38;11.40;;;14.60;99.90;;;;;;6202956;23;20028;-90
2021/08/01 06:41:37;;;;;;;14.07;11.45;;;14.60;99.90;;;;;;6223880;23;20032;-89
2021/08/01 06:44:42;;;;;;;18.58;11.73;;;14.60;99.90;;;;;;6225541;23;20293;-91
2021/08/01 06:47:48;;;;;;;18.85;13.80;;;14.60;99.90;;;;;;6193560;23;20498;-91
2021/08/01 06:50:40;;;;;;;17.05;12.05;;;14.70;99.90;;;;;;6190825;23;20436;-90
2021/08/01 06:53:28;;;;;;;16.17;11.48;;;14.80;99.90;;;;;;6191253;23;20024;-89
2021/08/01 06:56:24;;;;;;;13.63;10.45;;;14.80;99.90;;;;;;6192052;23;20039;-91
2021/08/01 06:59:17;;;;;;;12.38;11.18;;;14.90;99.90;;;;;;6192430;23;20127;-89
2021/08/01 07:02:22;;;;;;;15.05;10.30;;;15.20;99.90;;;;;;6151614;23;20032;-91
2021/08/01 07:05:35;;;;;;;12.02;8.95;;;15.20;99.90;;;;;;6152073;23;20021;-90
2021/08/01 07:08:59;;;;;;;13.10;8.23;;;15.20;99.90;;;;;;6151415;23;20029;-91
2021/08/01 07:12:35;;;;;;;10.57;7.50;;;15.30;99.90;;;;;;6120913;23;20056;-90
2021/08/01 07:15:24;;;;;;;8.88;7.60;;;15.30;99.90;;;;;;6149786;23;20021;-90
2021/08/01 07:18:26;;;;;;;12.20;7.20;;;15.50;99.90;;;;;;6165227;23;20043;-90
2021/08/01 07:21:13;;;;;;;9.70;7.57;;;15.50;99.90;;;;;;6182292;23;20104;-90
2021/08/01 07:24:01;;;;;;;9.70;7.20;;;15.50;99.90;;;;;;6181560;23;20025;-91
2021/08/01 07:26:51;;;;;;;8.95;6.95;;;15.40;99.90;;;;;;6153179;23;20025;-90
2021/08/01 07:29:40;;;;;;;8.70;7.35;;;15.40;99.90;;;;;;6151534;23;20017;-92
2021/08/01 07:32:29;;;;;;;9.82;7.30;;;15.30;99.90;;;;;;6171553;23;20094;-89
2021/08/01 07:35:20;;;;;;;7.82;7.03;;;15.20;99.90;;;;;;6215827;22;20103;-90
2021/08/01 07:38:07;;;;;;;9.50;6.82;;;15.30;99.90;;;;;;6194726;23;20028;-91
2021/08/01 07:40:55;;;;;;;9.60;7.13;;;15.30;99.90;;;;;;6215998;23;20036;-93
2021/08/01 07:43:43;;;;;;;9.35;7.40;;;15.30;99.90;;;;;;6211947;23;20081;-91
2021/08/01 07:46:33;;;;;;;11.40;8.00;;;15.30;99.90;;;;;;6193881;23;20039;-91
2021/08/01 07:49:23;;;;;;;11.68;7.60;;;15.30;99.90;;;;;;6213392;23;20043;-91
2021/08/01 07:52:11;;;;;;;9.65;7.68;;;15.30;99.90;;;;;;6222707;23;20111;-91
2021/08/01 07:55:08;;;;;;;13.65;8.57;;;15.30;99.90;;;;;;6215319;23;20433;-92
2021/08/01 07:58:00;;;;;;;14.30;7.65;;;15.30;99.90;;;;;;6193780;23;20420;-92
2021/08/01 08:00:52;;;;;;;12.90;7.57;;;15.30;99.90;;;;;;6214855;22;20027;-92
2021/08/01 08:03:42;;;;;;;12.70;7.53;;;15.40;99.90;;;;;;6215016;23;20035;-90
2021/08/01 08:06:29;;;;;;;10.60;6.85;;;15.40;99.90;;;;;;6214706;22;20159;-92
2021/08/01 08:09:28;;;;;;;;;;;;;;;;;;;;;
2021/08/01 08:12:19;;;;;;;11.35;6.72;;;15.40;99.90;;;;;;6215297;23;20028;-91
2021/08/01 08:15:09;;;;;;;11.02;6.80;;;15.40;99.90;;;;;;6213606;23;20143;-90
2021/08/01 08:17:57;;;;;;;8.02;7.15;;;15.40;99.90;;;;;;6195800;23;20021;-92
2021/08/01 08:20:44;;;;;;;14.32;7.38;;;15.40;99.90;;;;;;6215792;23;20030;-92
2021/08/01 08:23:42;;;;;;;10.32;6.25;;;15.40;99.90;;;;;;6214572;23;20020;-91
2021/08/01 08:26:43;;;;;;;11.68;7.20;;;15.40;99.90;;;;;;6225433;23;20027;-92
2021/08/01 08:29:31;;;;;;;13.38;7.43;;;15.30;99.90;;;;;;6225634;23;20086;-91
2021/08/01 08:32:39;;;;;;;10.98;7.88;;;15.30;99.90;;;;;;6243884;23;20352;-91
2021/08/01 08:35:30;;;;;;;11.10;6.95;;;15.20;99.90;;;;;;6221056;23;20311;-92
2021/08/01 08:38:24;;;;;;;10.05;7.32;;;15.20;99.90;;;;;;6223884;23;20031;-90
2021/08/01 08:41:34;;;;;;;10.88;7.65;;;15.00;99.90;;;;;;6227830;23;20094;-92
2021/08/01 08:44:22;;;;;;;14.75;8.95;;;15.00;99.90;;;;;;6246145;23;20396;-90
2021/08/01 08:47:18;;;;;;;13.77;8.20;;;15.10;99.90;;;;;;6162361;23;20139;-89
2021/08/01 08:50:11;;;;;;;14.95;9.07;;;15.10;99.90;;;;;;6181557;23;20219;-90
2021/08/01 08:53:04;;;;;;;12.70;8.93;;;15.10;99.90;;;;;;6179502;23;20104;-91
2021/08/01 08:55:52;;;;;;;8.75;7.50;;;15.10;99.90;;;;;;6160060;23;20122;-89
2021/08/01 08:58:42;;;;;;;12.55;7.57;;;15.20;99.90;;;;;;6181767;23;20084;-89
2021/08/01 09:02:35;;;;;;;12.10;6.15;;;15.30;99.90;;;;;;6051650;23;20123;-92
2021/08/01 09:05:28;;;;;;;7.18;5.57;;;15.50;99.90;;;;;;5943473;24;20405;-91
2021/08/01 09:08:36;;;;;;;6.43;5.65;;;15.70;99.90;;;;;;6092786;23;20425;-89
2021/08/01 09:11:24;;;;;;;8.13;5.35;;;15.70;99.90;;;;;;6094607;23;20048;-91
2021/08/01 09:14:35;;;;;;;6.82;5.13;;;15.80;99.90;;;;;;6095148;23;20105;-91
2021/08/01 09:17:38;;;;;;;7.68;5.32;;;15.90;99.90;;;;;;6095688;23;20029;-91
2021/08/01 09:28:21;;;;;;;6.28;4.55;;;16.10;99.90;;;;;;6130353;23;20154;-92
2021/08/01 09:31:50;;;;;;;6.05;4.18;;;16.10;99.90;;;;;;6225136;22;20020;-91
2021/08/01 09:34:49;;;;;;;5.47;4.10;;;16.20;99.90;;;;;;6241595;23;20052;-91
2021/08/01 09:37:58;;;;;;;6.43;4.47;;;16.40;99.90;;;;;;6146790;23;20388;-89
2021/08/01 09:41:03;;;;;;;5.40;3.95;;;16.40;99.90;;;;;;6148649;23;20095;-91
2021/08/01 09:44:00;;;;;;;4.45;3.13;;;16.40;99.90;;;;;;6129642;23;20026;-90
2021/08/01 09:47:01;;;;;;;5.28;4.28;;;16.40;99.90;;;;;;6132195;23;20405;-90
2021/08/01 09:50:10;;;;;;;4.97;4.40;;;16.60;99.90;;;;;;6130285;23;20026;-90
2021/08/01 09:53:11;;;;;;;8.30;4.53;;;16.80;99.90;;;;;;6129069;23;20040;-91
2021/08/01 09:56:37;;;;;;;7.20;3.80;;;16.90;99.90;;;;;;6072765;23;20533;-90
2021/08/01 10:03:50;;;;;;;6.00;3.60;;;17.20;99.90;;;;;;6034287;23;20027;-92
2021/08/01 10:07:26;;;;;;;6.50;4.13;;;17.10;99.90;;;;;;6022912;23;20074;-90
2021/08/01 10:10:32;;;;;;;8.75;4.80;;;17.30;99.90;;;;;;6104143;23;20030;-91
2021/08/01 10:13:54;;;;;;;8.98;4.38;;;17.40;99.90;;;;;;6119564;23;20026;-91
2021/08/01 10:16:58;;;;;;;8.05;4.72;;;17.60;99.90;;;;;;6153015;23;20025;-91
2021/08/01 10:19:50;;;;;;;6.55;4.40;;;17.70;99.90;;;;;;6153088;23;20033;-90
2021/08/01 10:22:56;;;;;;;5.60;4.13;;;17.60;99.90;;;;;;6152474;23;20386;-91
2021/08/01 10:25:57;;;;;;;5.53;4.07;;;17.30;99.90;;;;;;6153835;23;20104;-93
2021/08/01 10:28:54;;;;;;;8.05;4.95;;;17.10;99.90;;;;;;6152070;23;20025;-93
2021/08/01 10:31:50;;;;;;;6.47;4.28;;;17.40;99.90;;;;;;6238954;23;20088;-91
2021/08/01 10:34:56;;;;;;;6.95;4.72;;;17.80;99.90;;;;;;6227431;22;20082;-91
2021/08/01 10:37:59;;;;;;;5.63;4.57;;;18.00;99.90;;;;;;6258108;22;20020;-91
2021/08/01 10:41:19;;;;;;;9.15;4.88;;;17.80;99.90;;;;;;6228964;23;20031;-92
2021/08/01 10:44:19;;;;;;;7.00;4.70;;;17.90;99.90;;;;;;6228069;23;20024;-92
2021/08/01 10:47:53;;;;;;;;;;;;;;;;;;;;;
2021/08/01 10:50:56;;;;;;;;;;;17.80;99.90;;;;;;6251988;23;20384;-91
2021/08/01 10:53:45;;;;;;;7.20;5.20;;;17.50;99.90;;;;;;6247936;22;19916;-91
2021/08/01 10:56:43;;;;;;;6.80;4.30;;;17.60;99.90;;;;;;6227138;22;20052;-92
2021/08/01 10:59:57;;;;;;;6.45;5.05;;;17.90;99.90;;;;;;6213829;23;20415;-93
2021/08/01 11:03:27;;;;;;;;;;;;;;;;;;;;;
2021/08/01 11:06:46;;;;;;;11.35;5.13;;;18.20;99.90;;;;;;6235363;23;20418;-92
2021/08/01 11:09:39;;;;;;;9.98;4.80;;;18.40;99.90;;;;;;6227954;22;20043;-93
2021/08/01 11:12:43;;;;;;;9.77;4.55;;;18.30;99.90;;;;;;6206719;23;20074;-94
2021/08/01 11:15:45;;;;;;;7.53;4.35;;;18.20;99.90;;;;;;6248795;22;20393;-93
2021/08/01 11:22:05;;;;;;;9.95;4.88;;;18.80;99.90;;;;;;6122745;23;20026;-89
2021/08/01 11:25:24;;;;;;;6.40;4.57;;;19.20;99.90;;;;;;6123383;23;20033;-91
2021/08/01 11:28:34;;;;;;;7.00;3.95;;;19.50;99.90;;;;;;6124257;23;20026;-91
2021/08/01 11:31:24;;;;;;;8.40;4.38;;;19.80;99.90;;;;;;6194452;23;20039;-91
2021/08/01 11:34:20;;;;;;;7.70;4.50;;;20.10;99.90;;;;;;6214661;23;20028;-89
2021/08/01 11:37:17;;;;;;;5.68;4.13;;;20.10;99.90;;;;;;6175893;23;20140;-90
2021/08/01 11:40:09;;;;;;;5.55;4.65;;;19.60;99.90;;;;;;6212317;23;20181;-90
2021/08/01 11:43:06;;;;;;;6.35;4.50;;;19.20;99.90;;;;;;6215318;22;20024;-88
2021/08/01 11:46:06;;;;;;;6.45;5.05;;;19.00;99.90;;;;;;6211946;23;20301;-88
2021/08/01 11:49:02;;;;;;;8.93;4.43;;;19.00;99.90;;;;;;6212494;23;20111;-91
2021/08/01 11:52:41;;;;;;;8.38;4.10;;;19.10;99.90;;;;;;6214652;23;20078;-92
2021/08/01 11:56:08;;;;;;;;;;;;;;;;;;;;;
2021/08/01 11:59:24;;;;;;;7.32;3.92;;;19.40;99.90;;;;;;6218787;23;20016;-90
2021/08/01 12:02:28;;;;;;;7.50;3.80;;;19.40;99.90;;;;;;6214145;23;20025;-89
2021/08/01 12:05:47;;;;;;;8.20;4.15;;;19.90;99.90;;;;;;6216493;23;20113;-90
2021/08/01 12:08:43;;;;;;;6.38;4.57;;;20.10;99.90;;;;;;6215888;23;20024;-90
2021/08/01 12:11:31;;;;;;;5.65;3.90;;;20.30;99.90;;;;;;6228845;22;20034;-92
2021/08/01 12:14:41;;;;;;;3.95;3.15;;;21.20;99.90;;;;;;6226824;23;20032;-90
2021/08/01 12:17:35;;;;;;;4.53;2.67;;;22.00;99.90;;;;;;6226459;23;20024;-90
2021/08/01 12:20:38;;;;;;;6.35;3.00;;;22.90;99.90;;;;;;6227600;23;20039;-89
2021/08/01 12:23:37;;;;;;;4.80;2.90;;;22.50;99.90;;;;;;6226068;23;20021;-91
2021/08/01 12:26:36;;;;;;;5.45;3.17;;;21.60;99.90;;;;;;6232066;23;20095;-90
2021/08/01 12:29:38;;;;;;;6.70;3.17;;;20.90;99.90;;;;;;6244080;23;20082;-88
2021/08/01 12:32:29;;;;;;;5.15;3.15;;;19.80;99.90;;;;;;6239087;23;20159;-88
2021/08/01 12:35:22;;;;;;;13.70;5.80;;;19.00;99.90;;;;;;6237064;23;20039;-91
2021/08/01 12:38:10;;;;;;;6.47;5.28;;;17.90;99.90;;;;;;6234816;23;20024;-90
2021/08/01 12:41:12;;;;;;;6.68;5.80;;;17.20;99.90;;;;;;6215458;23;20028;-89
2021/08/01 12:44:12;;;;;;;9.43;5.35;;;16.90;99.90;;;;;;6213121;23;20422;-89
2021/08/01 12:47:11;;;;;;;6.63;4.50;;;16.90;99.90;;;;;;6216123;23;20040;-89
2021/08/01 12:50:07;;;;;;;5.72;3.70;;;18.10;99.90;;;;;;6234306;23;20475;-90
2021/08/01 12:52:59;;;;;;;5.43;3.08;;;20.00;99.90;;;;;;6235601;23;20025;-91
2021/08/01 12:56:02;;;;;;;5.22;2.85;;;21.80;99.90;;;;;;6232763;23;20408;-91
2021/08/01 12:58:50;;;;;;;4.50;2.63;;;23.40;99.90;;;;;;6235959;23;20025;-91
2021/08/01 13:01:41;;;;;;;6.80;2.50;;;24.60;99.90;;;;;;6215843;23;20048;-90
2021/08/01 13:04:45;;;;;;;5.72;2.33;;;24.80;99.90;;;;;;6234936;23;20035;-90
2021/08/01 13:07:44;;;;;;;4.72;2.83;;;23.50;99.90;;;;;;6233944;23;20039;-91
2021/08/01 13:10:46;;;;;;;7.05;2.85;;;22.20;99.90;;;;;;6235634;23;20042;-91
2021/08/01 13:13:48;;;;;;;5.60;3.05;;;21.50;99.90;;;;;;6232857;23;20390;-89
2021/08/01 13:16:54;;;;;;;3.95;2.90;;;20.90;99.90;;;;;;6233435;23;20100;-87
2021/08/01 13:19:43;;;;;;;5.18;3.17;;;20.80;99.90;;;;;;6233455;23;20027;-90
2021/08/01 13:22:36;;;;;;;4.20;3.20;;;20.60;99.90;;;;;;6234076;23;20025;-90
2021/08/01 13:25:35;;;;;;;5.78;3.78;;;20.10;99.90;;;;;;6222350;23;20456;-91
2021/08/01 13:28:45;;;;;;;4.93;4.10;;;19.40;99.90;;;;;;6222826;23;20039;-89
2021/08/01 13:31:35;;;;;;;4.53;3.40;;;19.00;99.90;;;;;;6223131;23;20032;-91
2021/08/01 13:34:36;;;;;;;4.40;3.65;;;18.60;99.90;;;;;;6222520;23;20028;-91
2021/08/01 13:37:29;;;;;;;4.45;3.75;;;18.10;99.90;;;;;;6226560;23;20016;-93
2021/08/01 13:40:28;;;;;;;5.40;4.00;;;18.00;99.90;;;;;;6227289;23;20028;-91
2021/08/01 13:43:21;;;;;;;7.90;5.15;;;17.70;99.90;;;;;;6243550;23;20024;-94
2021/08/01 13:46:17;;;;;;;7.05;4.60;;;17.50;99.90;;;;;;6223800;23;20038;-89
2021/08/01 13:49:05;;;;;;;9.50;5.15;;;17.40;99.90;;;;;;6204216;23;20039;-90
2021/08/01 13:51:52;;;;;;;6.45;4.38;;;17.40;99.90;;;;;;6226390;22;20024;-92
2021/08/01 13:54:40;;;;;;;5.43;4.70;;;17.40;99.90;;;;;;6224518;22;20114;-89
2021/08/01 13:57:29;;;;;;;5.05;4.00;;;17.60;99.90;;;;;;6243491;23;20099;-91
2021/08/01 14:00:20;;;;;;;4.80;3.03;;;17.80;99.90;;;;;;6199182;23;20035;-91
2021/08/01 14:03:09;;;;;;;;;;;18.80;99.90;;;;;;6201581;23;20529;-93
2021/08/01 14:05:56;;;;;;;4.75;2.83;;;20.10;99.90;;;;;;6227789;23;19946;-91
2021/08/01 14:08:44;;;;;;;2.97;2.35;;;20.80;99.90;;;;;;6233147;23;20024;-89
2021/08/01 14:11:35;;;;;;;5.20;2.40;;;20.70;99.90;;;;;;6234398;23;20028;-92
2021/08/01 14:14:31;;;;;;;7.20;3.20;;;20.50;99.90;;;;;;6229645;23;20032;-92
2021/08/01 14:17:32;;;;;;;2.35;1.65;;;20.30;99.90;;;;;;6208539;23;20024;-91
2021/08/01 14:20:20;;;;;;;2.17;1.70;;;19.80;99.90;;;;;;6242182;23;20035;-93
2021/08/01 14:23:21;;;;;;;3.08;1.10;;;19.50;99.90;;;;;;6224383;23;20086;-89
2021/08/01 14:26:16;;;;;;;1.13;0.98;;;18.90;99.90;;;;;;6220510;23;20020;-90
2021/08/01 14:29:04;;;;;;;1.17;0.85;;;18.40;99.90;;;;;;6221227;23;20020;-90
2021/08/01 14:31:54;;;;;;;4.47;1.63;;;18.00;99.90;;;;;;6221461;23;20016;-89
2021/08/01 14:34:46;;;;;;;1.48;1.35;;;17.70;99.90;;;;;;6220173;23;20043;-91
2021/08/01 14:37:51;;;;;;;2.42;1.13;;;17.50;99.90;;;;;;6242525;23;20023;-92
2021/08/01 14:40:40;;;;;;;2.88;1.00;;;17.20;99.90;;;;;;6221052;23;20095;-92
2021/08/01 14:43:29;;;;;;;1.55;1.10;;;17.10;99.90;;;;;;6220204;23;20103;-91
2021/08/01 14:46:56;;;;;;;1.83;1.00;;;17.00;99.90;;;;;;6223761;23;20031;-93
2021/08/01 14:54:48;;;;;;;;;;;;;;;;;;;;;
2021/08/01 14:58:06;;;;;;;1.70;1.42;;;16.30;99.90;;;;;;6130574;23;20057;-91
2021/08/01 15:01:17;;;;;;;2.70;1.40;;;15.90;99.90;;;;;;6134776;23;20155;-90
2021/08/01 15:04:19;;;;;;;2.03;1.60;;;15.50;99.90;;;;;;6134883;23;20108;-91
2021/08/01 15:07:17;;;;;;;1.90;1.48;;;15.20;99.90;;;;;;6231163;23;20437;-90
2021/08/01 15:10:14;;;;;;;2.20;1.70;;;15.10;99.90;;;;;;6244721;23;20059;-91
2021/08/01 15:13:24;;;;;;;2.20;1.90;;;15.10;99.90;;;;;;6165081;23;20156;-91
2021/08/01 15:16:12;;;;;;;4.53;2.15;;;15.20;99.90;;;;;;6164035;23;20033;-89
2021/08/01 15:19:09;;;;;;;2.80;1.83;;;15.10;99.90;;;;;;6165597;23;20025;-90
2021/08/01 15:22:04;;;;;;;4.95;1.98;;;15.00;99.90;;;;;;6183070;23;20025;-92
2021/08/01 15:25:00;;;;;;;3.95;2.50;;;14.80;99.90;;;;;;6184545;23;20031;-89
2021/08/01 15:27:49;;;;;;;3.72;2.20;;;14.70;99.90;;;;;;6181552;23;20025;-91
2021/08/01 15:30:42;;;;;;;3.53;2.53;;;14.70;99.90;;;;;;6183302;23;20039;-91
2021/08/01 15:33:30;;;;;;;4.75;2.45;;;14.90;99.90;;;;;;6224243;23;20512;-91
2021/08/01 15:36:24;;;;;;;7.32;2.42;;;14.90;99.90;;;;;;6222644;23;20024;-89
2021/08/01 15:39:15;;;;;;;5.65;2.58;;;14.90;99.90;;;;;;6225506;23;20028;-91
2021/08/01 15:42:06;;;;;;;4.45;2.00;;;14.80;99.90;;;;;;6225966;23;20138;-88
2021/08/01 15:44:54;;;;;;;4.60;1.98;;;14.70;99.90;;;;;;6221353;23;20050;-88